createdAt,value
2022-12-27T00:01:23.110Z,96469.28
2022-12-27T00:03:49.722Z,96474.69
2022-12-27T00:06:21.135Z,96470.69
2022-12-27T00:08:48.278Z,96485.78
2022-12-27T00:11:18.215Z,96482.19
2022-12-27T00:13:45.287Z,96490.63
2022-12-27T00:16:14.453Z,96495.34
2022-12-27T00:18:41.560Z,96497.41
2022-12-27T00:21:10.534Z,96496.59
2022-12-27T00:23:42.691Z,96503.88
2022-12-27T00:26:40.945Z,96503.31
2022-12-27T00:29:07.868Z,96508.63
2022-12-27T00:31:34.571Z,96517.78
2022-12-27T00:34:03.641Z,96522.28
2022-12-27T00:36:31.477Z,96508.75
2022-12-27T00:39:00.405Z,96513.41
2022-12-27T00:41:27.341Z,96508.31
2022-12-27T00:43:54.001Z,96501.84
2022-12-27T00:46:20.625Z,96510.59
2022-12-27T00:48:47.638Z,96512.53
2022-12-27T00:51:19.882Z,96510.66
2022-12-27T00:53:47.645Z,96521.97
2022-12-27T00:56:20.572Z,96515.44
2022-12-27T00:58:47.361Z,96524.06
2022-12-27T01:01:22.193Z,96515.66
2022-12-27T01:03:48.957Z,96528.75
2022-12-27T01:06:21.568Z,96517.44
2022-12-27T01:08:48.947Z,96533.75
2022-12-27T01:11:16.844Z,96539.16
2022-12-27T01:13:44.429Z,96532.84
2022-12-27T01:16:12.358Z,96538.59
2022-12-27T01:18:38.981Z,96538.09
2022-12-27T01:21:10.079Z,96539.03
2022-12-27T01:23:37.996Z,96537.97
2022-12-27T01:26:08.614Z,96533.38
2022-12-27T01:28:35.352Z,96543.22
2022-12-27T01:31:10.961Z,96544.19
2022-12-27T01:33:37.512Z,96542.25
2022-12-27T01:36:18.269Z,96534.06
2022-12-27T01:38:45.200Z,96544.44
2022-12-27T01:41:54.274Z,96550.34
2022-12-27T01:44:51.753Z,96554.56
2022-12-27T01:47:49.070Z,96556.41
2022-12-27T01:50:21.904Z,96546.31
2022-12-27T01:53:00.608Z,96562.31
2022-12-27T01:55:27.097Z,96559.06
2022-12-27T01:57:58.690Z,96563.66
2022-12-27T02:00:25.379Z,96561.44
2022-12-27T02:02:52.777Z,96565.53
2022-12-27T02:05:21.080Z,96578.25
2022-12-27T02:07:53.365Z,96576.03
2022-12-27T02:10:20.855Z,96567.09
2022-12-27T02:12:47.628Z,96574.06
2022-12-27T02:15:14.243Z,96572.19
2022-12-27T02:17:40.788Z,96581.44
2022-12-27T02:20:11.477Z,96582.81
2022-12-27T02:22:59.624Z,96579.06
2022-12-27T02:25:44.869Z,96588.06
2022-12-27T02:28:33.159Z,96577.56
2022-12-27T02:31:07.110Z,96579.53
2022-12-27T02:33:41.172Z,96587.72
2022-12-27T02:36:12.515Z,96577.41
2022-12-27T02:38:48.155Z,96582.00
2022-12-27T02:41:34.820Z,96578.72
2022-12-27T02:44:20.110Z,96589.38
2022-12-27T02:47:07.102Z,96586.66
2022-12-27T02:50:01.004Z,96582.47
2022-12-27T02:53:03.940Z,96597.13
2022-12-27T02:56:11.138Z,96579.69
2022-12-27T02:59:10.719Z,96586.38
2022-12-27T03:02:17.876Z,96582.66
2022-12-27T03:04:47.218Z,96574.56
2022-12-27T03:07:32.749Z,96594.88
2022-12-27T03:10:21.057Z,96576.19
2022-12-27T03:13:14.842Z,96580.53
2022-12-27T03:15:57.884Z,96585.31
2022-12-27T03:18:43.230Z,96582.41
2022-12-27T03:21:31.575Z,96580.31
2022-12-27T03:24:18.218Z,96577.34
2022-12-27T03:26:49.086Z,96569.22
2022-12-27T03:29:38.500Z,96574.97
2022-12-27T03:32:27.669Z,96592.03
2022-12-27T03:35:24.942Z,96593.41
2022-12-27T03:38:03.665Z,96590.47
2022-12-27T03:41:03.958Z,96598.66
2022-12-27T03:43:31.368Z,96594.31
2022-12-27T03:46:34.577Z,96591.91
2022-12-27T03:49:36.525Z,96593.81
2022-12-27T03:52:23.008Z,96601.94
2022-12-27T03:54:51.948Z,96614.59
2022-12-27T03:57:22.422Z,96623.84
2022-12-27T03:59:49.424Z,96633.94
2022-12-27T04:02:16.692Z,96625.81
2022-12-27T04:04:43.414Z,96614.53
2022-12-27T04:07:13.157Z,96633.00
2022-12-27T04:09:58.277Z,96627.50
2022-12-27T04:12:43.363Z,96630.97
2022-12-27T04:15:28.910Z,96629.25
2022-12-27T04:18:14.105Z,96625.72
2022-12-27T04:20:59.473Z,96629.34
2022-12-27T04:23:44.594Z,96638.19
2022-12-27T04:26:29.786Z,96638.19
2022-12-27T04:29:15.503Z,96631.72
2022-12-27T04:32:00.721Z,96632.72
2022-12-27T04:34:43.792Z,96605.88
2022-12-27T04:37:19.454Z,96620.25
2022-12-27T04:40:06.299Z,96639.28
2022-12-27T04:42:51.508Z,96632.72
2022-12-27T04:45:36.330Z,96634.59
2022-12-27T04:48:22.012Z,96629.19
2022-12-27T04:51:07.219Z,96634.84
2022-12-27T04:53:52.552Z,96626.09
2022-12-27T04:56:19.074Z,96626.34
2022-12-27T04:59:04.328Z,96640.28
2022-12-27T05:01:49.597Z,96627.06
2022-12-27T05:04:16.555Z,96634.47
2022-12-27T05:06:43.211Z,96644.88
2022-12-27T05:09:28.294Z,96650.84
2022-12-27T05:12:13.423Z,96655.06
2022-12-27T05:14:39.918Z,96641.09
2022-12-27T05:17:06.490Z,96640.84
2022-12-27T05:19:33.102Z,96628.78
2022-12-27T05:22:18.037Z,96636.91
2022-12-27T05:25:03.171Z,96647.50
2022-12-27T05:27:29.718Z,96650.78
2022-12-27T05:29:56.253Z,96644.78
2022-12-27T05:32:22.820Z,96648.31
2022-12-27T05:34:49.364Z,96653.16
2022-12-27T05:37:15.962Z,96656.09
2022-12-27T05:39:42.668Z,96647.75
2022-12-27T05:42:09.239Z,96652.50
2022-12-27T05:44:35.824Z,96656.09
2022-12-27T05:47:02.535Z,96637.66
2022-12-27T05:49:29.094Z,96648.56
2022-12-27T05:51:55.634Z,96637.97
2022-12-27T05:54:22.299Z,96640.94
2022-12-27T05:56:49.000Z,96636.09
2022-12-27T05:59:15.599Z,96634.47
2022-12-27T06:01:42.875Z,96643.31
2022-12-27T06:04:10.471Z,96649.72
2022-12-27T06:06:36.983Z,96652.91
2022-12-27T06:09:03.601Z,96644.47
2022-12-27T06:11:30.278Z,96655.13
2022-12-27T06:13:56.929Z,96638.22
2022-12-27T06:16:23.679Z,96653.91
2022-12-27T06:18:50.406Z,96655.78
2022-12-27T06:21:19.763Z,96648.41
2022-12-27T06:23:47.251Z,96650.69
2022-12-27T06:26:26.616Z,96625.44
2022-12-27T06:28:55.514Z,96648.97
2022-12-27T06:31:23.019Z,96645.22
2022-12-27T06:33:51.439Z,96657.25
2022-12-27T06:36:23.808Z,96656.34
2022-12-27T06:38:50.684Z,96659.13
2022-12-27T06:41:18.883Z,96658.56
2022-12-27T06:43:46.911Z,96651.59
2022-12-27T06:46:17.724Z,96655.88
2022-12-27T06:48:46.142Z,96665.63
2022-12-27T06:51:13.823Z,96659.06
2022-12-27T06:53:40.531Z,96657.44
2022-12-27T06:56:12.451Z,96655.72
2022-12-27T06:58:39.223Z,96657.44
2022-12-27T07:01:20.627Z,96672.75
2022-12-27T07:03:51.348Z,96658.09
2022-12-27T07:06:18.535Z,96668.56
2022-12-27T07:08:46.151Z,96665.44
2022-12-27T07:11:13.924Z,96675.72
2022-12-27T07:13:44.202Z,96663.09
2022-12-27T07:16:13.161Z,96683.00
2022-12-27T07:18:40.199Z,96692.44
2022-12-27T07:21:15.401Z,96693.50
2022-12-27T07:23:42.234Z,96693.50
2022-12-27T07:26:12.829Z,96692.19
2022-12-27T07:28:40.476Z,96697.38
2022-12-27T07:31:12.729Z,96697.38
2022-12-27T07:33:39.919Z,96707.56
2022-12-27T07:36:10.512Z,96700.72
2022-12-27T07:38:37.107Z,96705.19
2022-12-27T07:41:03.949Z,96714.38
2022-12-27T07:43:33.927Z,96711.09
2022-12-27T07:46:14.961Z,96713.31
2022-12-27T07:48:42.353Z,96714.84
2022-12-27T07:51:09.737Z,96723.16
2022-12-27T07:53:36.600Z,96730.03
2022-12-27T07:56:12.251Z,96734.28
2022-12-27T07:58:40.953Z,96741.09
2022-12-27T08:01:08.774Z,96732.59
2022-12-27T08:03:36.336Z,96736.44
2022-12-27T08:06:03.576Z,96751.78
2022-12-27T08:08:39.141Z,96731.84
2022-12-27T08:11:06.503Z,96742.09
2022-12-27T08:13:33.730Z,96731.75
2022-12-27T08:16:00.940Z,96736.94
2022-12-27T08:18:28.262Z,96738.31
2022-12-27T08:20:55.170Z,96743.16
2022-12-27T08:23:22.167Z,96751.03
2022-12-27T08:25:49.240Z,96748.00
2022-12-27T08:28:17.977Z,96744.56
2022-12-27T08:30:47.158Z,96743.41
2022-12-27T08:33:15.294Z,96739.72
2022-12-27T08:35:54.347Z,96737.50
2022-12-27T08:38:21.537Z,96737.50
2022-12-27T08:40:48.119Z,96745.06
2022-12-27T08:43:14.944Z,96760.31
2022-12-27T08:45:42.055Z,96759.41
2022-12-27T08:48:08.934Z,96745.22
2022-12-27T08:50:35.840Z,96756.50
2022-12-27T08:53:04.135Z,96766.97
2022-12-27T08:55:31.089Z,96753.00
2022-12-27T08:57:58.929Z,96749.06
2022-12-27T09:00:26.573Z,96748.91
2022-12-27T09:02:53.887Z,96756.53
2022-12-27T09:05:22.091Z,96762.03
2022-12-27T09:07:49.268Z,96758.66
2022-12-27T09:10:16.009Z,96757.53
2022-12-27T09:12:42.763Z,96761.38
2022-12-27T09:15:09.787Z,96756.03
2022-12-27T09:17:36.355Z,96759.88
2022-12-27T09:20:03.425Z,96752.09
2022-12-27T09:22:30.749Z,96743.63
2022-12-27T09:24:57.426Z,96750.44
2022-12-27T09:27:24.064Z,96762.91
2022-12-27T09:29:50.676Z,96783.44
2022-12-27T09:32:17.236Z,96768.81
2022-12-27T09:34:43.885Z,96779.22
2022-12-27T09:37:11.488Z,96773.56
2022-12-27T09:39:38.219Z,96774.69
2022-12-27T09:45:26.174Z,96763.91
2022-12-27T09:48:03.498Z,96764.22
2022-12-27T09:50:47.537Z,96767.63
2022-12-27T09:53:24.821Z,96771.75
2022-12-27T09:55:58.012Z,96770.97
2022-12-27T09:58:36.550Z,96772.09
2022-12-27T10:01:12.438Z,96781.50
2022-12-27T10:03:39.042Z,96769.25
2022-12-27T10:06:37.872Z,96772.41
2022-12-27T10:09:16.229Z,96766.66
2022-12-27T10:11:58.613Z,96766.50
2022-12-27T10:14:47.167Z,96768.88
2022-12-27T10:17:22.665Z,96772.91
2022-12-27T10:20:04.660Z,96769.94
2022-12-27T10:22:41.190Z,96766.50
2022-12-27T10:25:13.369Z,96761.81
2022-12-27T10:27:41.724Z,96774.53
2022-12-27T10:30:29.464Z,96760.81
2022-12-27T10:32:56.256Z,96750.84
2022-12-27T10:35:24.270Z,96747.31
2022-12-27T10:37:50.928Z,96747.75
2022-12-27T10:40:20.281Z,96749.97
2022-12-27T10:42:59.575Z,96747.13
2022-12-27T10:45:39.381Z,96752.25
2022-12-27T10:48:19.695Z,96756.09
2022-12-27T10:51:05.254Z,96751.47
2022-12-27T10:53:34.602Z,96752.63
2022-12-27T10:56:16.747Z,96739.50
2022-12-27T10:58:58.592Z,96745.00
2022-12-27T11:01:30.328Z,96751.16
2022-12-27T11:04:21.138Z,96758.47
2022-12-27T11:07:13.599Z,96757.34
2022-12-27T11:09:50.712Z,96759.38
2022-12-27T11:12:28.663Z,96757.09
2022-12-27T11:15:01.483Z,96755.25
2022-12-27T11:17:49.041Z,96760.25
2022-12-27T11:20:26.995Z,96768.44
2022-12-27T11:22:59.702Z,96755.19
2022-12-27T11:25:28.356Z,96754.72
2022-12-27T11:28:02.023Z,96761.50
2022-12-27T11:30:40.131Z,96764.34
2022-12-27T11:33:46.576Z,96755.38
2022-12-27T11:36:16.034Z,96761.38
2022-12-27T11:38:44.921Z,96752.56
2022-12-27T11:41:27.549Z,96758.28
2022-12-27T11:44:26.634Z,96754.22
2022-12-27T11:47:01.785Z,96757.59
2022-12-27T11:49:37.902Z,96755.69
2022-12-27T11:52:13.597Z,96752.09
2022-12-27T11:55:17.676Z,96752.94
2022-12-27T11:58:11.992Z,96751.19
2022-12-27T12:01:02.061Z,96753.66
2022-12-27T12:03:52.875Z,96748.41
2022-12-27T12:06:56.351Z,96745.78
2022-12-27T12:09:38.343Z,96743.75
2022-12-27T12:12:42.515Z,96746.16
2022-12-27T12:15:36.837Z,96739.31
2022-12-27T12:18:26.383Z,96752.06
2022-12-27T12:21:18.331Z,96754.69
2022-12-27T12:24:09.999Z,96737.84
2022-12-27T12:27:24.535Z,96739.13
2022-12-27T12:30:13.544Z,96733.38
2022-12-27T12:33:08.117Z,96730.22
2022-12-27T12:35:46.546Z,96730.56
2022-12-27T12:38:21.452Z,96722.97
2022-12-27T12:41:06.710Z,96718.59
2022-12-27T12:43:45.584Z,96713.13
2022-12-27T12:46:32.826Z,96702.78
2022-12-27T12:49:14.477Z,96705.25
2022-12-27T12:51:46.828Z,96691.63
2022-12-27T12:54:31.805Z,96696.31
2022-12-27T12:57:28.608Z,96697.38
2022-12-27T13:00:19.803Z,96689.66
2022-12-27T13:03:20.417Z,96689.34
2022-12-27T13:06:10.286Z,96689.28
2022-12-27T13:08:39.513Z,96687.34
2022-12-27T13:11:24.901Z,96677.03
2022-12-27T13:14:02.342Z,96686.13
2022-12-27T13:16:55.802Z,96679.59
2022-12-27T13:19:50.185Z,96691.59
2022-12-27T13:22:27.477Z,96689.94
2022-12-27T13:25:15.210Z,96685.53
2022-12-27T13:27:48.087Z,96680.72
2022-12-27T13:30:22.903Z,96675.25
2022-12-27T13:33:07.599Z,96676.97
2022-12-27T13:35:48.901Z,96664.03
2022-12-27T13:38:38.641Z,96664.34
2022-12-27T13:41:11.014Z,96658.22
2022-12-27T13:44:18.695Z,96657.91
2022-12-27T13:46:47.999Z,96655.16
2022-12-27T13:50:08.531Z,96648.44
2022-12-27T13:53:00.019Z,96639.44
2022-12-27T13:55:51.955Z,96638.34
2022-12-27T13:58:36.437Z,96639.09
2022-12-27T14:01:17.796Z,96637.78
2022-12-27T14:03:44.356Z,96656.13
2022-12-27T14:06:39.508Z,96645.56
2022-12-27T14:09:16.409Z,96659.16
2022-12-27T14:12:07.101Z,96661.78
2022-12-27T14:14:38.053Z,96648.72
2022-12-27T14:17:25.919Z,96637.03
2022-12-27T14:20:07.492Z,96648.19
2022-12-27T14:23:25.502Z,96645.97
2022-12-27T14:26:08.195Z,96638.56
2022-12-27T14:28:59.280Z,96642.66
2022-12-27T14:31:53.977Z,96628.47
2022-12-27T14:34:35.709Z,96627.09
2022-12-27T14:37:19.660Z,96626.31
2022-12-27T14:40:13.972Z,96615.63
2022-12-27T14:43:16.030Z,96624.28
2022-12-27T14:46:16.938Z,96616.19
2022-12-27T14:48:55.564Z,96621.38
2022-12-27T14:52:06.108Z,96618.13
2022-12-27T14:54:48.345Z,96606.44
2022-12-27T14:57:33.484Z,96612.59
2022-12-27T15:00:15.869Z,96617.53
2022-12-27T15:03:00.778Z,96611.97
2022-12-27T15:05:48.508Z,96601.25
2022-12-27T15:08:58.160Z,96596.31
2022-12-27T15:11:48.939Z,96598.97
2022-12-27T15:14:40.269Z,96601.09
2022-12-27T15:17:18.632Z,96626.63
2022-12-27T15:20:15.972Z,96609.56
2022-12-27T15:23:13.249Z,96603.28
2022-12-27T15:26:01.314Z,96605.94
2022-12-27T15:29:05.111Z,96610.06
2022-12-27T15:31:59.536Z,96609.91
2022-12-27T15:35:03.484Z,96610.50
2022-12-27T15:37:48.360Z,96603.16
2022-12-27T15:40:32.994Z,96600.44
2022-12-27T15:43:20.520Z,96592.03
2022-12-27T15:46:36.061Z,96590.31
2022-12-27T15:49:06.300Z,96592.75
2022-12-27T15:51:44.707Z,96590.56
2022-12-27T15:54:32.812Z,96594.91
2022-12-27T15:57:17.220Z,96595.75
2022-12-27T15:59:47.603Z,96593.84
2022-12-27T16:02:53.648Z,96599.25
2022-12-27T16:05:20.353Z,96592.22
2022-12-27T16:07:51.020Z,96591.13
2022-12-27T16:10:32.498Z,96584.06
2022-12-27T16:12:59.219Z,96588.88
2022-12-27T16:15:43.309Z,96569.53
2022-12-27T16:18:31.106Z,96577.31
2022-12-27T16:21:14.067Z,96569.97
2022-12-27T16:23:46.487Z,96578.16
2022-12-27T16:26:15.940Z,96582.59
2022-12-27T16:28:51.838Z,96577.63
2022-12-27T16:31:45.568Z,96582.25
2022-12-27T16:34:28.513Z,96577.09
2022-12-27T16:36:58.345Z,96578.44
2022-12-27T16:39:49.899Z,96575.47
2022-12-27T16:42:23.597Z,96571.63
2022-12-27T16:45:02.869Z,96576.69
2022-12-27T16:47:46.761Z,96574.19
2022-12-27T16:50:19.361Z,96578.50
2022-12-27T16:52:57.376Z,96579.53
2022-12-27T16:55:40.704Z,96588.16
2022-12-27T16:58:23.493Z,96591.13
2022-12-27T17:00:52.697Z,96592.16
2022-12-27T17:03:22.223Z,96588.13
2022-12-27T17:06:30.209Z,96571.41
2022-12-27T17:08:36.980Z,96575.66
2022-12-27T17:11:23.865Z,96570.41
2022-12-27T17:13:57.179Z,96569.78
2022-12-27T17:16:28.478Z,96560.59
2022-12-27T17:19:08.311Z,96563.06
2022-12-27T17:21:37.758Z,96550.84
2022-12-27T17:24:21.306Z,96565.50
2022-12-27T17:27:12.533Z,96558.91
2022-12-27T17:29:45.087Z,96562.06
2022-12-27T17:32:36.481Z,96551.97
2022-12-27T17:35:18.187Z,96546.38
2022-12-27T17:38:06.165Z,96536.03
2022-12-27T17:40:41.904Z,96534.03
2022-12-27T17:43:54.978Z,96533.97
2022-12-27T17:46:28.906Z,96526.97
2022-12-27T17:48:58.087Z,96523.75
2022-12-27T17:51:28.255Z,96524.91
2022-12-27T17:54:14.312Z,96531.13
2022-12-27T17:57:14.089Z,96519.78
2022-12-27T17:59:46.651Z,96512.91
2022-12-27T18:02:24.949Z,96520.25
2022-12-27T18:04:57.055Z,96518.38
2022-12-27T18:07:29.668Z,96519.25
2022-12-27T18:10:17.104Z,96510.41
2022-12-27T18:12:46.612Z,96509.72
2022-12-27T18:15:17.032Z,96519.53
2022-12-27T18:17:49.650Z,96509.03
2022-12-27T18:20:29.723Z,96508.78
2022-12-27T18:23:02.139Z,96509.63
2022-12-27T18:25:40.497Z,96506.97
2022-12-27T18:28:33.783Z,96505.38
2022-12-27T18:31:00.753Z,96505.88
2022-12-27T18:33:34.364Z,96498.63
2022-12-27T18:36:03.187Z,96481.53
2022-12-27T18:38:38.964Z,96478.56
2022-12-27T18:41:12.548Z,96478.00
2022-12-27T18:43:45.077Z,96473.41
2022-12-27T18:46:29.983Z,96470.66
2022-12-27T18:48:57.376Z,96466.91
2022-12-27T18:51:37.652Z,96460.94
2022-12-27T18:54:29.917Z,96463.13
2022-12-27T18:56:57.725Z,96450.09
2022-12-27T18:59:32.429Z,96450.91
2022-12-27T19:02:23.284Z,96441.41
2022-12-27T19:05:23.824Z,96436.19
2022-12-27T19:08:10.997Z,96442.72
2022-12-27T19:10:46.156Z,96433.78
2022-12-27T19:13:34.120Z,96434.03
2022-12-27T19:16:01.062Z,96435.69
2022-12-27T19:18:31.626Z,96428.88
2022-12-27T19:21:01.036Z,96430.19
2022-12-27T19:23:36.548Z,96435.09
2022-12-27T19:26:15.305Z,96435.34
2022-12-27T19:28:45.518Z,96422.91
2022-12-27T19:31:21.537Z,96421.34
2022-12-27T19:33:52.122Z,96417.03
2022-12-27T19:36:30.302Z,96414.06
2022-12-27T19:38:57.383Z,96417.53
2022-12-27T19:41:24.871Z,96420.88
2022-12-27T19:43:51.719Z,96423.56
2022-12-27T19:46:19.226Z,96416.56
2022-12-27T19:49:07.687Z,96417.09
2022-12-27T19:51:32.735Z,96409.22
2022-12-27T19:53:59.402Z,96406.22
2022-12-27T19:56:26.086Z,96408.38
2022-12-27T19:58:52.760Z,96408.94
2022-12-27T20:01:19.372Z,96405.13
2022-12-27T20:03:46.188Z,96394.31
2022-12-27T20:06:22.848Z,96396.53
2022-12-27T20:08:53.289Z,96386.75
2022-12-27T20:11:22.372Z,96391.63
2022-12-27T20:13:50.127Z,96395.41
2022-12-27T20:16:18.869Z,96389.16
2022-12-27T20:18:46.227Z,96388.59
2022-12-27T20:21:14.271Z,96383.16
2022-12-27T20:23:41.092Z,96372.84
2022-12-27T20:26:08.326Z,96373.97
2022-12-27T20:28:34.887Z,96378.56
2022-12-27T20:31:10.047Z,96376.97
2022-12-27T20:33:36.872Z,96365.56
2022-12-27T20:36:04.107Z,96364.22
2022-12-27T20:38:31.619Z,96352.03
2022-12-27T20:41:09.966Z,96351.50
2022-12-27T20:43:36.793Z,96349.34
2022-12-27T20:46:08.598Z,96335.75
2022-12-27T20:48:40.471Z,96339.00
2022-12-27T20:51:15.780Z,96335.44
2022-12-27T20:53:42.467Z,96330.28
2022-12-27T20:56:10.188Z,96306.91
2022-12-27T20:58:36.972Z,96326.19
2022-12-27T21:01:12.652Z,96320.47
2022-12-27T21:03:39.801Z,96325.91
2022-12-27T21:06:10.520Z,96318.56
2022-12-27T21:08:45.541Z,96327.53
2022-12-27T21:11:19.895Z,96320.25
2022-12-27T21:13:47.753Z,96325.94
2022-12-27T21:16:17.253Z,96317.31
2022-12-27T21:18:43.922Z,96310.78
2022-12-27T21:21:18.986Z,96319.25
2022-12-27T21:23:46.307Z,96329.03
2022-12-27T21:26:14.586Z,96322.25
2022-12-27T21:28:42.268Z,96317.41
2022-12-27T21:31:10.059Z,96313.06
2022-12-27T21:33:36.746Z,96306.81
2022-12-27T21:36:07.251Z,96305.22
2022-12-27T21:38:34.126Z,96301.16
2022-12-27T21:41:22.046Z,96304.94
2022-12-27T21:43:49.563Z,96313.63
2022-12-27T21:46:29.069Z,96305.22
2022-12-27T21:49:01.828Z,96308.19
2022-12-27T21:51:30.104Z,96307.94
2022-12-27T21:53:57.373Z,96306.56
2022-12-27T21:56:24.781Z,96301.69
2022-12-27T21:58:51.708Z,96302.22
2022-12-27T22:01:20.763Z,96297.63
2022-12-27T22:03:50.110Z,96297.34
2022-12-27T22:06:17.995Z,96285.94
2022-12-27T22:08:46.984Z,96290.00
2022-12-27T22:11:14.459Z,96277.53
2022-12-27T22:13:42.479Z,96282.69
2022-12-27T22:16:16.864Z,96276.16
2022-12-27T22:18:45.100Z,96280.81
2022-12-27T22:21:14.819Z,96275.91
2022-12-27T22:23:47.052Z,96268.31
2022-12-27T22:26:19.693Z,96265.34
2022-12-27T22:28:46.974Z,96263.16
2022-12-27T22:31:15.805Z,96263.16
2022-12-27T22:33:42.471Z,96256.38
2022-12-27T22:36:12.731Z,96245.25
2022-12-27T22:38:40.697Z,96254.75
2022-12-27T22:41:10.327Z,96246.31
2022-12-27T22:43:36.863Z,96244.69
2022-12-27T22:46:13.434Z,96235.75
2022-12-27T22:48:40.959Z,96239.53
2022-12-27T22:51:13.262Z,96234.09
2022-12-27T22:53:40.583Z,96237.09
2022-12-27T22:56:14.575Z,96231.66
2022-12-27T22:58:41.338Z,96211.31
2022-12-27T23:01:22.297Z,96215.38
2022-12-27T23:03:49.719Z,96213.19
2022-12-27T23:06:17.081Z,96211.31
2022-12-27T23:08:44.773Z,96223.53
2022-12-27T23:11:20.632Z,96208.59
2022-12-27T23:13:48.925Z,96202.88
2022-12-27T23:16:15.658Z,96196.91
2022-12-27T23:18:42.312Z,96187.69
2022-12-27T23:21:21.092Z,96183.88
2022-12-27T23:23:53.513Z,96178.44
2022-12-27T23:26:22.627Z,96182.78
2022-12-27T23:28:51.372Z,96173.00
2022-12-27T23:31:19.925Z,96151.00
2022-12-27T23:33:46.697Z,96147.47
2022-12-27T23:36:14.536Z,96148.56
2022-12-27T23:38:42.349Z,96134.69
2022-12-27T23:41:18.620Z,96127.38
2022-12-27T23:43:54.464Z,96112.16
2022-12-27T23:46:23.962Z,96113.78
2022-12-27T23:48:51.288Z,96126.00
2022-12-27T23:51:18.595Z,96116.22
2022-12-27T23:53:45.401Z,96102.09
2022-12-27T23:56:21.264Z,96103.19
2022-12-27T23:58:48.753Z,96100.19
